Time;durP1;ratioP1;P1;durP2;ratioP2;P2;SDS_P1;SDS_P2;PMS_P1;PMS_P2;Temp;Humidity;BMP_temperature;BMP_pressure;BME280_temperature;BME280_humidity;BME280_pressure;Samples;Min_cycle;Max_cycle;Signal;HPM_P1;HPM_P2
2023/03/29 00:01:08;;;;;;;8.30;6.50;;;;;;;-0.30;72.01;100995.98;109560;1244;72932;-70
2023/03/29 00:03:38;;;;;;;8.10;5.80;;;;;;;-0.36;72.18;100995.77;109568;1244;71769;-70
2023/03/29 00:06:08;;;;;;;8.70;5.50;;;;;;;-0.39;72.37;100997.55;109529;1244;69193;-69
2023/03/29 00:08:37;;;;;;;7.80;5.70;;;;;;;-0.45;72.93;101000.94;109409;1244;71746;-69
2023/03/29 00:11:06;;;;;;;9.00;6.10;;;;;;;-0.45;73.02;100998.88;109514;1247;59704;-70
2023/03/29 00:13:35;;;;;;;10.90;6.30;;;;;;;-0.43;72.94;101005.69;109439;1244;59603;-70
2023/03/29 00:16:04;;;;;;;11.10;6.60;;;;;;;-0.46;72.82;101005.59;109405;1244;74262;-69
2023/03/29 00:18:33;;;;;;;7.90;5.90;;;;;;;-0.50;72.41;101005.34;109441;1248;70617;-69
2023/03/29 00:21:02;;;;;;;9.30;6.50;;;;;;;-0.52;72.21;101009.49;109408;1244;70311;-71
2023/03/29 00:23:31;;;;;;;8.80;6.30;;;;;;;-0.58;72.37;101016.28;109524;1244;71468;-70
2023/03/29 00:26:00;;;;;;;5.70;4.10;;;;;;;-0.59;72.00;101014.58;109460;1244;61913;-71
2023/03/29 00:28:30;;;;;;;9.40;6.30;;;;;;;-0.62;72.58;101012.45;109387;1244;59123;-70
2023/03/29 00:31:12;;;;;;;9.00;5.70;;;;;;;-0.62;72.43;101020.64;109434;1244;72764;-70
2023/03/29 00:33:42;;;;;;;9.80;6.30;;;;;;;-0.68;72.64;101011.35;109487;1244;70720;-69
2023/03/29 00:36:11;;;;;;;8.90;6.00;;;;;;;-0.71;72.28;101012.96;109330;1244;69781;-68
2023/03/29 00:38:40;;;;;;;9.10;6.60;;;;;;;-0.77;72.39;101016.34;109339;1244;72282;-69
2023/03/29 00:41:10;;;;;;;8.80;6.30;;;;;;;-0.84;72.47;101015.97;109491;1247;58687;-70
2023/03/29 00:43:58;;;;;;;9.90;6.30;;;;;;;-0.90;72.04;101018.48;109480;1246;58606;-70
2023/03/29 00:46:29;;;;;;;7.80;6.20;;;;;;;-0.93;72.20;101018.02;109290;1244;71596;-70
2023/03/29 00:49:08;;;;;;;8.90;4.60;;;;;;;-0.95;72.44;101025.25;109382;1244;71425;-70
2023/03/29 00:51:40;;;;;;;10.80;6.20;;;;;;;-0.98;72.47;101023.96;109319;1244;68028;-71
2023/03/29 00:54:17;;;;;;;9.20;5.90;;;;;;;-1.06;72.38;101014.88;109315;1244;73868;-69
2023/03/29 00:56:50;;;;;;;9.40;5.50;;;;;;;-1.01;72.07;101025.73;109334;1248;62864;-70
2023/03/29 00:59:27;;;;;;;6.80;5.30;;;;;;;-1.03;71.86;101024.04;109458;1244;61113;-69
2023/03/29 01:02:02;;;;;;;7.10;5.20;;;;;;;-1.06;72.11;101026.85;109355;1244;74082;-70
2023/03/29 01:04:42;;;;;;;7.00;5.10;;;;;;;-1.07;71.86;101027.21;109373;1244;71114;-69
2023/03/29 01:07:22;;;;;;;10.00;6.10;;;;;;;-1.06;71.27;101028.05;109404;1244;68437;-70
2023/03/29 01:10:08;;;;;;;7.20;4.80;;;;;;;-1.02;70.74;101030.55;109358;1244;73758;-68
2023/03/29 01:12:44;;;;;;;8.50;5.80;;;;;;;-0.97;70.34;101030.43;109354;1244;62441;-70
2023/03/29 01:15:26;;;;;;;8.70;5.90;;;;;;;-0.97;70.26;101031.96;109418;1244;59859;-70
2023/03/29 01:17:57;;;;;;;9.80;5.80;;;;;;;-0.97;69.84;101033.15;109364;1244;71978;-71
2023/03/29 01:20:42;;;;;;;7.20;5.10;;;;;;;-0.97;69.54;101034.34;109499;1244;71866;-70
2023/03/29 01:23:53;;;;;;;8.70;5.90;;;;;;;-0.98;69.41;101029.25;109324;1244;69041;-71
2023/03/29 01:27:14;;;;;;;7.40;5.60;;;;;;;-1.00;69.02;101029.98;109105;1244;73641;-70
2023/03/29 01:29:49;;;;;;;7.00;4.60;;;;;;;-1.01;69.10;101035.13;109132;1248;62784;-68
2023/03/29 01:32:36;;;;;;;6.40;4.20;;;;;;;-1.01;69.06;101033.58;109516;1244;59903;-69
2023/03/29 01:35:20;;;;;;;7.40;5.20;;;;;;;-1.05;68.83;101032.98;109532;1245;70889;-73
2023/03/29 01:38:04;;;;;;;7.10;5.50;;;;;;;-1.08;68.88;101029.95;109430;1244;70252;-68
2023/03/29 01:40:33;;;;;;;7.40;5.00;;;;;;;-1.13;68.91;101032.60;109272;1244;70567;-70
2023/03/29 01:43:19;;;;;;;7.90;5.30;;;;;;;-1.18;68.65;101032.00;109290;1244;74070;-69
2023/03/29 01:46:03;;;;;;;8.20;5.00;;;;;;;-1.20;68.46;101033.77;109367;1248;60636;-69
2023/03/29 01:48:41;;;;;;;6.90;5.20;;;;;;;-1.22;68.53;101036.72;109331;1249;59036;-70
2023/03/29 01:51:30;;;;;;;7.90;5.40;;;;;;;-1.22;68.15;101037.58;109308;1244;72713;-71
2023/03/29 01:54:10;;;;;;;7.80;5.10;;;;;;;-1.23;68.04;101038.77;109166;1244;70827;-69
2023/03/29 01:56:42;;;;;;;4.90;3.70;;;;;;;-1.22;67.91;101042.20;109139;1249;67673;-70
2023/03/29 01:59:17;;;;;;;7.50;3.90;;;;;;;-1.21;67.61;101043.20;109137;1250;73913;-71
2023/03/29 02:01:53;;;;;;;5.80;4.00;;;;;;;-1.23;67.70;101040.67;109103;1248;60094;-73
2023/03/29 02:04:30;;;;;;;5.10;3.40;;;;;;;-1.24;67.46;101042.55;109113;1250;59428;-73
2023/03/29 02:07:01;;;;;;;7.60;5.10;;;;;;;-1.22;67.35;101046.12;109202;1244;71669;-72
2023/03/29 02:09:32;;;;;;;6.80;4.70;;;;;;;-1.20;67.08;101046.06;109101;1244;72691;-71
2023/03/29 02:12:05;;;;;;;;;;;;;;;-1.18;67.21;101047.23;109187;1245;70865;-70
2023/03/29 02:14:34;;;;;;;6.70;4.50;;;;;;;-1.22;67.06;101043.89;109091;1245;74084;-70
2023/03/29 02:17:19;;;;;;;6.10;4.10;;;;;;;-1.23;66.93;101046.98;109243;1245;61959;-71
2023/03/29 02:20:16;;;;;;;7.00;4.80;;;;;;;-1.23;66.84;101048.53;109139;1248;59066;-69
2023/03/29 02:23:27;;;;;;;7.40;4.40;;;;;;;-1.23;67.09;101048.86;109081;1248;72837;-69
2023/03/29 02:25:57;;;;;;;7.10;4.30;;;;;;;-1.27;66.71;101052.17;109162;1245;69489;-71
2023/03/29 02:28:27;;;;;;;6.50;4.70;;;;;;;-1.30;66.74;101054.63;109199;1245;70482;-70
2023/03/29 02:31:23;;;;;;;6.90;4.70;;;;;;;-1.33;66.89;101056.22;109127;1244;72539;-70
2023/03/29 02:34:04;;;;;;;7.50;5.00;;;;;;;-1.40;67.00;101059.77;109123;1251;58570;-71
2023/03/29 02:36:43;;;;;;;7.60;5.20;;;;;;;-1.44;67.07;101061.37;109195;1244;61231;-71
2023/03/29 02:39:14;;;;;;;7.90;4.70;;;;;;;-1.50;66.94;101061.48;109080;1244;73934;-72
2023/03/29 02:41:48;;;;;;;7.60;5.30;;;;;;;-1.54;67.35;101062.91;109200;1244;71706;-72
2023/03/29 02:44:25;;;;;;;8.40;4.60;;;;;;;-1.54;67.20;101065.64;109040;1251;68174;-71
2023/03/29 02:47:05;;;;;;;8.00;5.40;;;;;;;-1.55;67.88;101068.40;109148;1251;70115;-71
2023/03/29 02:49:34;;;;;;;8.60;5.10;;;;;;;-1.56;67.66;101072.84;109166;1249;61882;-71
2023/03/29 02:52:11;;;;;;;10.10;4.80;;;;;;;-1.54;67.62;101075.04;109250;1244;61794;-70
2023/03/29 02:54:44;;;;;;;7.20;4.30;;;;;;;-1.52;67.52;101075.52;109182;1244;73830;-71
2023/03/29 02:57:13;;;;;;;9.10;5.50;;;;;;;-1.48;67.40;101078.17;109185;1244;72165;-72
2023/03/29 02:59:43;;;;;;;7.90;5.50;;;;;;;-1.45;67.46;101077.96;109229;1244;71021;-72
2023/03/29 03:02:12;;;;;;;7.90;4.80;;;;;;;-1.41;67.40;101079.61;109236;1251;73466;-73
2023/03/29 03:04:42;;;;;;;8.90;5.50;;;;;;;-1.38;67.38;101082.61;109363;1248;59953;-71
2023/03/29 03:07:10;;;;;;;9.50;5.50;;;;;;;-1.32;67.07;101084.73;109312;1248;60650;-72
2023/03/29 03:09:39;;;;;;;8.30;4.50;;;;;;;-1.27;66.94;101094.23;109088;1251;72864;-73
2023/03/29 03:12:09;;;;;;;6.90;5.10;;;;;;;-1.25;66.62;101093.67;109231;1251;70266;-71
2023/03/29 03:14:38;;;;;;;8.80;4.80;;;;;;;-1.25;66.39;101095.04;109239;1248;69857;-70
2023/03/29 03:17:07;;;;;;;7.80;5.30;;;;;;;-1.23;66.24;101100.48;109327;1249;74131;-71
2023/03/29 03:19:36;;;;;;;9.00;6.00;;;;;;;-1.16;65.76;101104.11;109397;1248;62391;-71
2023/03/29 03:22:06;;;;;;;7.10;5.00;;;;;;;-1.12;64.98;101107.63;109333;1251;60733;-72
2023/03/29 03:24:35;;;;;;;9.70;5.20;;;;;;;-1.11;65.05;101105.73;109306;1245;72452;-70
2023/03/29 03:27:04;;;;;;;7.10;5.10;;;;;;;-1.03;64.90;101106.62;109398;1244;71502;-71
2023/03/29 03:29:34;;;;;;;8.20;5.80;;;;;;;-0.96;64.80;101108.20;109374;1244;70110;-71
2023/03/29 03:32:25;;;;;;;4.00;3.00;;;;;;;-0.97;63.90;101109.41;109329;1244;73476;-72
2023/03/29 03:35:12;;;;;;;8.30;5.10;;;;;;;-1.02;63.28;101109.33;109387;1247;59777;-76
2023/03/29 03:37:41;;;;;;;7.20;4.60;;;;;;;-1.04;63.30;101108.52;109247;1244;60464;-73
2023/03/29 03:40:12;;;;;;;7.90;5.20;;;;;;;-1.09;63.20;101112.88;109204;1251;73257;-75
2023/03/29 03:42:41;;;;;;;8.40;5.10;;;;;;;-1.15;62.96;101116.58;109207;1252;70838;-73
2023/03/29 03:45:11;;;;;;;12.10;5.30;;;;;;;-1.16;63.04;101112.66;109372;1244;69418;-74
2023/03/29 03:47:42;;;;;;;8.10;5.40;;;;;;;-1.22;63.10;101117.73;109294;1249;71723;-72
2023/03/29 03:50:20;;;;;;;7.30;5.50;;;;;;;-1.25;62.96;101124.44;109307;1249;58696;-73
2023/03/29 03:52:49;;;;;;;5.20;4.20;;;;;;;-1.24;63.35;101129.72;109302;1251;59441;-73
2023/03/29 03:55:20;;;;;;;9.50;4.80;;;;;;;-1.24;63.61;101125.96;109304;1244;71779;-75
2023/03/29 03:57:52;;;;;;;6.30;4.10;;;;;;;-1.28;63.01;101133.04;109263;1251;70357;-73
2023/03/29 04:00:22;;;;;;;9.10;5.30;;;;;;;-1.33;62.96;101136.70;109269;1251;67492;-72
2023/03/29 04:03:20;;;;;;;10.20;5.70;;;;;;;-1.39;63.18;101134.92;109373;1248;72464;-72
2023/03/29 04:05:49;;;;;;;6.30;4.10;;;;;;;-1.43;63.17;101135.17;109268;1251;60640;-74
2023/03/29 04:08:21;;;;;;;6.10;3.60;;;;;;;-1.50;63.65;101133.75;109314;1244;58002;-75
2023/03/29 04:11:09;;;;;;;11.40;5.20;;;;;;;-1.51;63.63;101138.70;109421;1248;70864;-74
2023/03/29 04:13:39;;;;;;;9.20;5.10;;;;;;;-1.53;64.33;101140.27;109280;1251;70947;-73
2023/03/29 04:16:27;;;;;;;9.50;5.90;;;;;;;-1.52;64.30;101147.79;109379;1250;69169;-75
2023/03/29 04:18:59;;;;;;;8.70;5.50;;;;;;;-1.55;64.18;101155.00;109317;1244;73846;-76
2023/03/29 04:21:28;;;;;;;9.20;5.40;;;;;;;-1.60;64.40;101152.34;109327;1244;60721;-73
2023/03/29 04:23:56;;;;;;;6.80;5.30;;;;;;;-1.65;64.70;101154.98;109450;1248;60680;-73
2023/03/29 04:26:26;;;;;;;6.90;5.00;;;;;;;-1.64;64.53;101161.46;109357;1244;73646;-73
2023/03/29 04:29:06;;;;;;;7.60;4.90;;;;;;;-1.63;64.64;101159.05;109439;1244;72970;-73
2023/03/29 04:31:42;;;;;;;9.20;6.20;;;;;;;-1.63;64.70;101161.95;109409;1244;69080;-73
2023/03/29 04:34:52;;;;;;;9.50;5.50;;;;;;;-1.68;65.26;101162.02;109434;1244;73230;-74
2023/03/29 04:37:21;;;;;;;7.80;5.80;;;;;;;-1.64;65.63;101166.40;109344;1248;62762;-71
2023/03/29 04:39:51;;;;;;;6.90;4.60;;;;;;;-1.62;65.31;101171.33;109429;1244;59457;-73
2023/03/29 04:42:20;;;;;;;7.80;4.10;;;;;;;-1.60;65.16;101171.46;109295;1244;73589;-75
2023/03/29 04:44:48;;;;;;;7.50;4.00;;;;;;;-1.57;65.07;101185.60;109309;1244;71828;-73
2023/03/29 04:47:22;;;;;;;8.20;4.80;;;;;;;-1.56;64.80;101181.67;109307;1244;70377;-71
2023/03/29 04:49:56;;;;;;;10.30;5.70;;;;;;;-1.53;64.79;101181.45;109263;1245;74762;-70
2023/03/29 04:52:32;;;;;;;8.60;5.00;;;;;;;-1.51;64.70;101186.19;109320;1247;60140;-73
2023/03/29 04:55:04;;;;;;;5.20;3.40;;;;;;;-1.46;64.30;101188.50;109330;1244;60890;-73
2023/03/29 04:57:48;;;;;;;8.70;5.60;;;;;;;-1.43;64.50;101192.55;109201;1245;71338;-71
2023/03/29 05:00:30;;;;;;;6.50;5.10;;;;;;;-1.38;64.59;101194.04;109259;1244;69671;-72
2023/03/29 05:03:25;;;;;;;7.50;5.30;;;;;;;-1.32;64.20;101195.98;109284;1246;71085;-73
2023/03/29 05:06:07;;;;;;;9.50;5.70;;;;;;;-1.27;64.11;101203.08;109215;1244;73172;-72
2023/03/29 05:08:39;;;;;;;7.90;6.00;;;;;;;-1.23;64.02;101205.07;109223;1251;61391;-73
2023/03/29 05:11:14;;;;;;;11.40;9.00;;;;;;;-1.15;64.16;101208.02;109296;1244;59297;-76
2023/03/29 05:13:43;;;;;;;11.60;7.00;;;;;;;-1.10;63.81;101205.02;109210;1244;73499;-76
2023/03/29 05:16:12;;;;;;;13.40;8.40;;;;;;;-1.01;63.79;101206.42;109216;1244;71804;-75
2023/03/29 05:18:40;;;;;;;11.90;7.70;;;;;;;-0.97;63.86;101204.14;109340;1244;70945;-71
2023/03/29 05:21:10;;;;;;;8.60;5.60;;;;;;;-0.82;63.82;101215.84;109231;1244;72646;-73
2023/03/29 05:23:39;;;;;;;7.60;5.20;;;;;;;-0.73;63.14;101217.91;109304;1244;61990;-69
2023/03/29 05:26:08;;;;;;;9.40;5.70;;;;;;;-0.69;62.96;101218.53;109410;1244;59949;-73
2023/03/29 05:28:38;;;;;;;7.90;5.80;;;;;;;-0.62;62.09;101225.77;109377;1248;72573;-72
2023/03/29 05:31:07;;;;;;;6.70;4.70;;;;;;;-0.55;61.94;101220.51;109256;1244;69717;-71
2023/03/29 05:33:39;;;;;;;10.10;5.10;;;;;;;-0.49;61.86;101228.44;109305;1244;69619;-72
2023/03/29 05:36:15;;;;;;;7.60;5.20;;;;;;;-0.45;61.64;101230.92;109255;1247;75180;-73
2023/03/29 05:38:46;;;;;;;14.10;9.90;;;;;;;-0.42;61.55;101223.34;109229;1249;59152;-73
2023/03/29 05:41:16;;;;;;;8.60;5.70;;;;;;;-0.34;61.84;101224.20;109241;1245;59761;-74
2023/03/29 05:43:45;;;;;;;12.10;5.70;;;;;;;-0.25;61.28;101226.25;109299;1244;72380;-71
2023/03/29 05:46:14;;;;;;;7.40;5.10;;;;;;;-0.20;60.26;101234.05;109362;1244;69629;-73
2023/03/29 05:48:48;;;;;;;10.60;6.00;;;;;;;-0.11;59.87;101235.41;109315;1244;67982;-73
2023/03/29 05:51:22;;;;;;;7.80;5.40;;;;;;;-0.08;59.38;101230.72;109317;1245;73046;-74
2023/03/29 05:53:54;;;;;;;7.90;5.10;;;;;;;-0.01;59.20;101228.19;109296;1247;58583;-72
2023/03/29 05:56:23;;;;;;;6.30;4.80;;;;;;;0.05;57.85;101238.16;109344;1245;59789;-74
2023/03/29 05:58:55;;;;;;;10.10;5.30;;;;;;;0.05;57.25;101230.98;109176;1244;71743;-73
2023/03/29 06:01:24;;;;;;;7.40;6.00;;;;;;;0.06;56.99;101240.73;109167;1244;69533;-76
2023/03/29 06:04:00;;;;;;;10.00;6.70;;;;;;;0.13;56.82;101240.58;109175;1244;70588;-77
2023/03/29 06:06:35;;;;;;;9.70;5.60;;;;;;;0.24;56.05;101240.00;109186;1250;74266;-72
2023/03/29 06:09:04;;;;;;;6.80;5.00;;;;;;;0.27;55.88;101240.27;109220;1247;60510;-74
2023/03/29 06:11:45;;;;;;;6.90;4.50;;;;;;;0.33;55.87;101248.04;109207;1244;60479;-74
2023/03/29 06:14:28;;;;;;;9.70;5.40;;;;;;;0.32;55.11;101269.47;109369;1244;72783;-73
2023/03/29 06:17:47;;;;;;;8.50;4.60;;;;;;;0.37;54.77;101274.16;109415;1244;70459;-72
2023/03/29 06:20:17;;;;;;;6.80;5.40;;;;;;;0.38;54.51;101281.84;109349;1244;69266;-74
2023/03/29 06:22:51;;;;;;;6.90;4.90;;;;;;;0.42;54.14;101286.56;108997;1244;369862;-75
2023/03/29 06:25:20;;;;;;;9.00;5.00;;;;;;;0.44;54.11;101272.30;109292;1248;58220;-76
2023/03/29 06:27:51;;;;;;;7.60;5.20;;;;;;;0.47;54.25;101284.73;109242;1244;58896;-72
2023/03/29 06:30:20;;;;;;;8.10;4.90;;;;;;;0.50;54.10;101269.06;109238;1245;74265;-72
2023/03/29 06:32:51;;;;;;;11.50;5.90;;;;;;;0.54;54.27;101268.64;109083;1244;70761;-77
2023/03/29 06:35:39;;;;;;;8.00;4.80;;;;;;;0.58;53.96;101265.48;109204;1244;68627;-75
2023/03/29 06:38:10;;;;;;;6.70;4.40;;;;;;;0.64;53.98;101267.41;109168;1244;71475;-71
2023/03/29 06:41:11;;;;;;;8.80;4.30;;;;;;;0.74;53.64;101266.83;109292;1244;59659;-73
2023/03/29 06:44:33;;;;;;;5.90;4.00;;;;;;;0.72;51.79;101288.30;109232;1244;61651;-74
2023/03/29 06:47:07;;;;;;;5.80;3.60;;;;;;;0.79;51.72;101264.48;109336;1244;73303;-73
2023/03/29 06:49:36;;;;;;;11.10;4.10;;;;;;;0.86;51.85;101270.52;109297;1244;72744;-72
2023/03/29 06:52:26;;;;;;;6.00;4.00;;;;;;;0.93;51.11;101271.70;109309;1244;69172;-73
2023/03/29 06:54:55;;;;;;;7.70;4.90;;;;;;;0.93;51.37;101266.39;109149;1244;71857;-73
2023/03/29 06:57:24;;;;;;;6.40;4.20;;;;;;;1.03;51.86;101269.26;109116;1248;59422;-72
2023/03/29 06:59:53;;;;;;;5.50;3.90;;;;;;;1.14;51.07;101279.30;109253;1244;58005;-75
2023/03/29 07:02:26;;;;;;;5.20;3.80;;;;;;;1.20;50.97;101276.89;109331;1244;72862;-74
2023/03/29 07:04:57;;;;;;;6.30;3.70;;;;;;;1.30;49.92;101285.73;109203;1244;70680;-72
2023/03/29 07:07:52;;;;;;;5.90;4.10;;;;;;;1.46;48.96;101283.45;109416;1244;70482;-73
2023/03/29 07:10:52;;;;;;;8.40;4.70;;;;;;;1.57;49.91;101289.00;109254;1244;74225;-72
2023/03/29 07:13:26;;;;;;;8.20;4.00;;;;;;;1.36;49.92;101294.88;109221;1244;59359;-72
2023/03/29 07:15:55;;;;;;;5.20;3.50;;;;;;;1.36;49.49;101290.74;109217;1244;58962;-78
2023/03/29 07:18:33;;;;;;;5.70;3.90;;;;;;;1.43;49.70;101292.30;109408;1244;72750;-69
2023/03/29 07:21:03;;;;;;;6.20;3.90;;;;;;;1.55;48.65;101300.39;109364;1244;72691;-71
2023/03/29 07:23:33;;;;;;;5.00;3.50;;;;;;;1.56;48.10;101299.86;109255;1244;69124;-69
2023/03/29 07:26:02;;;;;;;6.50;3.70;;;;;;;1.52;48.06;101322.77;109212;1244;73029;-71
2023/03/29 07:28:31;;;;;;;8.90;3.60;;;;;;;1.42;47.23;101297.10;109142;1247;59175;-70
2023/03/29 07:31:09;;;;;;;5.00;3.40;;;;;;;1.64;47.51;101304.61;109134;1244;61793;-67
2023/03/29 07:33:45;;;;;;;4.80;3.30;;;;;;;1.67;47.88;101305.91;109202;1244;72618;-75
2023/03/29 07:36:14;;;;;;;5.20;3.60;;;;;;;1.63;47.98;101316.13;109207;1244;71913;-73
2023/03/29 07:38:43;;;;;;;5.10;3.20;;;;;;;1.80;47.14;101296.46;109198;1244;68264;-69
2023/03/29 07:41:17;;;;;;;4.10;3.20;;;;;;;1.94;46.73;101306.24;109299;1245;73833;-69
2023/03/29 07:43:51;;;;;;;4.70;3.10;;;;;;;1.96;47.23;101298.09;109297;1246;59258;-70
2023/03/29 07:46:23;;;;;;;6.40;3.80;;;;;;;2.24;46.38;101299.04;109214;1244;60404;-69
2023/03/29 07:48:55;;;;;;;8.20;3.40;;;;;;;2.24;46.00;101301.43;109181;1244;74462;-72
2023/03/29 07:51:24;;;;;;;5.30;2.90;;;;;;;2.12;46.15;101311.73;109210;1244;69334;-70
2023/03/29 07:54:00;;;;;;;5.60;3.60;;;;;;;2.03;46.87;101310.11;109234;1244;70583;-71
2023/03/29 07:56:52;;;;;;;6.30;3.70;;;;;;;1.88;46.97;101310.20;109198;1244;70763;-69
2023/03/29 07:59:35;;;;;;;4.40;3.10;;;;;;;1.77;46.83;101322.15;109342;1247;58446;-72
2023/03/29 08:02:19;;;;;;;4.10;2.90;;;;;;;1.46;46.11;101329.11;109309;1245;61895;-69
2023/03/29 08:04:53;;;;;;;5.80;3.50;;;;;;;1.61;45.42;101327.53;109388;1244;73202;-72
2023/03/29 08:07:55;;;;;;;4.10;2.70;;;;;;;1.90;45.69;101313.55;109292;1244;72828;-70
2023/03/29 08:10:45;;;;;;;5.10;3.30;;;;;;;1.85;46.69;101321.95;109462;1244;68933;-70
2023/03/29 08:14:04;;;;;;;4.90;2.90;;;;;;;2.01;47.53;101335.05;109517;1244;74522;-70
2023/03/29 08:17:13;;;;;;;4.40;3.20;;;;;;;1.94;46.18;101332.17;109424;1246;58713;-70
2023/03/29 08:19:46;;;;;;;6.10;3.80;;;;;;;1.99;45.39;101331.52;109541;1244;58913;-70
2023/03/29 08:22:22;;;;;;;6.80;4.00;;;;;;;1.88;45.49;101330.09;109423;1244;71575;-70
2023/03/29 08:25:37;;;;;;;6.40;3.80;;;;;;;1.97;46.61;101338.29;109375;1244;69976;-70
2023/03/29 08:28:06;;;;;;;5.20;3.50;;;;;;;1.90;47.62;101341.38;109456;1244;70549;-69
2023/03/29 08:30:44;;;;;;;4.80;3.00;;;;;;;1.76;47.50;101337.95;109423;1247;72998;-70
2023/03/29 08:33:13;;;;;;;4.20;2.80;;;;;;;1.75;47.64;101335.08;109378;1247;59826;-70
2023/03/29 08:35:42;;;;;;;3.30;2.30;;;;;;;2.03;45.58;101338.98;109374;1247;58004;-70
2023/03/29 08:38:20;;;;;;;4.00;3.00;;;;;;;2.10;45.44;101329.50;109378;1244;72153;-71
2023/03/29 08:40:50;;;;;;;5.30;2.70;;;;;;;2.01;46.18;101330.60;109390;1244;72151;-70
2023/03/29 08:43:58;;;;;;;4.10;2.90;;;;;;;1.99;45.93;101334.42;109394;1244;68990;-72
2023/03/29 08:47:49;;;;;;;5.80;3.10;;;;;;;2.00;45.95;101335.95;109339;1244;71949;-70
2023/03/29 08:50:24;;;;;;;5.30;3.20;;;;;;;2.23;45.04;101313.84;109350;1246;57946;-71
2023/03/29 08:53:03;;;;;;;4.40;3.20;;;;;;;2.58;44.59;101328.83;109363;1244;58766;-72
2023/03/29 08:56:25;;;;;;;3.90;2.90;;;;;;;2.73;43.76;101316.86;109211;1244;73616;-71
2023/03/29 08:58:56;;;;;;;3.10;2.10;;;;;;;2.66;42.94;101341.49;109424;1244;72619;-70
2023/03/29 09:01:33;;;;;;;5.10;2.60;;;;;;;2.42;43.51;101341.83;109384;1244;69060;-70
2023/03/29 09:04:22;;;;;;;3.80;3.00;;;;;;;2.26;44.95;101342.30;109392;1244;73306;-71
2023/03/29 09:07:44;;;;;;;2.10;1.90;;;;;;;1.83;45.36;101365.25;109260;1244;58995;-70
2023/03/29 09:10:19;;;;;;;5.00;2.40;;;;;;;1.83;45.11;101354.61;109358;1247;60131;-70
2023/03/29 09:13:10;;;;;;;4.30;2.50;;;;;;;1.94;44.60;101345.89;109338;1244;72768;-72
2023/03/29 09:16:02;;;;;;;3.80;2.40;;;;;;;2.01;44.45;101343.84;109335;1247;70168;-71
2023/03/29 09:18:55;;;;;;;2.70;1.80;;;;;;;2.07;44.10;101356.91;109273;1249;67888;-70
2023/03/29 09:21:48;;;;;;;3.40;2.20;;;;;;;2.18;43.76;101353.33;109329;1244;73103;-72
2023/03/29 09:24:43;;;;;;;4.00;2.40;;;;;;;2.36;44.39;101361.94;109404;1247;60088;-71
2023/03/29 09:27:27;;;;;;;6.00;2.40;;;;;;;2.49;44.13;101368.98;109394;1244;61079;-71
2023/03/29 09:30:15;;;;;;;3.20;1.70;;;;;;;2.53;44.35;101355.63;109361;1244;74210;-71
2023/03/29 09:33:23;;;;;;;2.30;1.20;;;;;;;2.53;40.55;101348.92;109324;1247;69997;-71
2023/03/29 09:36:35;;;;;;;2.90;1.50;;;;;;;2.55;40.20;101352.83;109352;1244;70600;-72
2023/03/29 09:39:04;;;;;;;4.20;1.90;;;;;;;2.55;41.16;101356.44;109304;1247;74305;-71
2023/03/29 09:41:47;;;;;;;2.60;1.80;;;;;;;2.56;40.81;101365.68;109206;1250;58813;-70
2023/03/29 09:44:23;;;;;;;4.20;2.10;;;;;;;2.73;41.10;101349.38;109330;1249;59525;-71
2023/03/29 09:47:18;;;;;;;2.40;1.60;;;;;;;2.90;41.99;101347.82;109372;1247;70816;-73
2023/03/29 09:49:54;;;;;;;3.50;2.10;;;;;;;2.93;41.87;101362.20;109282;1244;72315;-70
2023/03/29 09:52:22;;;;;;;3.40;2.00;;;;;;;2.57;42.95;101369.09;109409;1244;71655;-71
2023/03/29 09:55:04;;;;;;;4.10;1.90;;;;;;;2.11;45.44;101385.84;109146;1244;71529;-70
2023/03/29 09:58:26;;;;;;;3.40;2.20;;;;;;;1.82;46.87;101389.68;108983;1247;58789;-71
2023/03/29 10:01:04;;;;;;;3.70;2.20;;;;;;;1.57;48.16;101399.56;109174;1247;59752;-71
2023/03/29 10:03:35;;;;;;;4.40;2.10;;;;;;;1.60;48.48;101386.61;109180;1244;73562;-71
2023/03/29 10:06:11;;;;;;;8.60;3.90;;;;;;;1.63;48.57;101378.48;109195;1244;71814;-71
2023/03/29 10:09:01;;;;;;;3.90;2.60;;;;;;;1.80;47.46;101380.29;109160;1244;68422;-71
2023/03/29 10:11:37;;;;;;;2.60;1.70;;;;;;;1.92;44.41;101374.84;109207;1244;73948;-72
2023/03/29 10:14:17;;;;;;;3.60;1.70;;;;;;;1.96;43.44;101371.80;109246;1245;60499;-73
2023/03/29 10:16:53;;;;;;;3.00;2.30;;;;;;;1.89;43.57;101367.17;109158;1244;59528;-73
2023/03/29 10:19:33;;;;;;;3.20;2.10;;;;;;;2.03;43.86;101375.21;109169;1244;72394;-72
2023/03/29 10:22:23;;;;;;;1.80;1.30;;;;;;;2.08;44.02;101374.08;109223;1245;70657;-70
2023/03/29 10:24:56;;;;;;;2.50;1.60;;;;;;;2.05;44.16;101376.89;109338;1247;67808;-71
2023/03/29 10:27:31;;;;;;;1.60;1.30;;;;;;;1.95;44.02;101393.14;109268;1244;72945;-71
2023/03/29 10:30:08;;;;;;;2.40;1.60;;;;;;;1.72;43.32;101381.35;109336;1247;61065;-71
2023/03/29 10:32:37;;;;;;;4.00;2.20;;;;;;;1.69;43.37;101375.57;109348;1244;61045;-71
2023/03/29 10:35:33;;;;;;;4.40;1.90;;;;;;;1.70;44.01;101381.73;109326;1248;74244;-73
2023/03/29 10:38:09;;;;;;;6.60;2.40;;;;;;;1.95;44.38;101381.96;109343;1248;71200;-71
2023/03/29 10:41:21;;;;;;;2.70;2.10;;;;;;;1.97;44.94;101377.98;109236;1244;71051;-72
2023/03/29 10:43:50;;;;;;;3.10;2.20;;;;;;;2.16;45.20;101371.95;109247;1247;73142;-72
2023/03/29 10:46:34;;;;;;;3.90;2.10;;;;;;;2.34;45.06;101360.27;109107;1250;60160;-71
2023/03/29 10:49:09;;;;;;;3.50;1.80;;;;;;;2.25;46.06;101362.61;109194;1244;61223;-71
2023/03/29 10:51:44;;;;;;;2.90;2.10;;;;;;;2.38;46.20;101366.90;109057;1244;74070;-70
2023/03/29 10:54:14;;;;;;;3.00;2.10;;;;;;;2.16;46.65;101365.95;109145;1248;72210;-68
2023/03/29 10:56:49;;;;;;;8.60;2.50;;;;;;;2.07;46.90;101358.11;109277;1245;68664;-69
2023/03/29 10:59:38;;;;;;;3.70;1.90;;;;;;;1.90;47.68;101370.23;109231;1243;73957;-68
2023/03/29 11:02:13;;;;;;;3.40;2.10;;;;;;;1.67;48.39;101386.98;109147;1244;60831;-71
2023/03/29 11:05:16;;;;;;;4.60;2.60;;;;;;;1.40;49.70;101389.31;109229;1244;59271;-71
2023/03/29 11:08:28;;;;;;;8.80;2.20;;;;;;;1.33;50.78;101379.88;109117;1248;71599;-69
2023/03/29 11:11:33;;;;;;;4.90;2.50;;;;;;;1.40;51.30;101378.19;108752;1253;70439;-74
2023/03/29 11:14:27;;;;;;;4.60;2.90;;;;;;;1.32;52.14;101372.02;109110;1249;68641;-71
2023/03/29 11:17:07;;;;;;;4.10;2.40;;;;;;;1.49;51.63;101374.02;109130;1247;71128;-70
2023/03/29 11:19:46;;;;;;;4.10;2.90;;;;;;;1.53;51.72;101371.50;109200;1246;59822;-69
2023/03/29 11:22:52;;;;;;;2.90;2.30;;;;;;;1.44;51.90;101372.58;109326;1246;61648;-72
2023/03/29 11:26:01;;;;;;;4.80;2.30;;;;;;;1.61;51.49;101363.58;108945;1247;73542;-69
2023/03/29 11:29:01;;;;;;;5.10;2.50;;;;;;;1.75;50.27;101356.52;109079;1244;73141;-70
2023/03/29 11:31:51;;;;;;;2.80;2.20;;;;;;;1.74;49.79;101362.40;109272;1244;70271;-72
2023/03/29 11:34:41;;;;;;;2.80;2.30;;;;;;;1.76;49.55;101364.59;109301;1247;72400;-72
2023/03/29 11:37:21;;;;;;;4.10;2.60;;;;;;;1.59;53.73;101378.06;109310;1247;58694;-70
2023/03/29 11:40:04;;;;;;;4.50;2.50;;;;;;;1.18;58.50;101394.64;109203;1251;58726;-71
2023/03/29 11:42:38;;;;;;;4.00;2.70;;;;;;;1.07;58.74;101396.61;109378;1245;73467;-70
2023/03/29 11:45:17;;;;;;;3.20;2.40;;;;;;;0.89;58.73;101383.11;109288;1250;72805;-73
2023/03/29 11:47:48;;;;;;;4.60;3.10;;;;;;;0.94;58.22;101373.91;109173;1250;67925;-70
2023/03/29 11:50:31;;;;;;;3.70;2.70;;;;;;;1.05;57.41;101368.35;109108;1244;73075;-72
2023/03/29 11:53:25;;;;;;;3.70;2.80;;;;;;;1.26;56.08;101362.20;109145;1244;60551;-70
2023/03/29 11:55:56;;;;;;;4.60;3.30;;;;;;;1.50;54.98;101355.27;109163;1244;61173;-71
2023/03/29 11:58:36;;;;;;;5.30;3.20;;;;;;;1.66;54.54;101355.91;109277;1244;74258;-70
2023/03/29 12:01:13;;;;;;;4.40;3.20;;;;;;;1.72;53.61;101346.14;109397;1244;72511;-70
2023/03/29 12:03:52;;;;;;;6.90;3.10;;;;;;;1.88;51.78;101354.30;109455;1244;67661;-70
2023/03/29 12:06:33;;;;;;;5.10;2.90;;;;;;;2.01;50.58;101355.36;109165;1250;74042;-72
2023/03/29 12:09:23;;;;;;;4.60;3.40;;;;;;;2.07;50.90;101351.41;109258;1244;61178;-72
2023/03/29 12:12:04;;;;;;;4.80;3.00;;;;;;;2.15;51.08;101360.13;109385;1245;60731;-72
2023/03/29 12:15:19;;;;;;;4.70;2.60;;;;;;;2.16;51.64;101371.44;109294;1244;72152;-72
2023/03/29 12:18:33;;;;;;;5.60;3.40;;;;;;;1.97;51.41;101370.42;109259;1247;71471;-72